Time;durP1;ratioP1;P1;durP2;ratioP2;P2;SDS_P1;SDS_P2;PMS_P1;PMS_P2;Temp;Humidity;BMP_temperature;BMP_pressure;BME280_temperature;BME280_humidity;BME280_pressure;Samples;Min_cycle;Max_cycle;Signal;HPM_P1;HPM_P2
2021/07/31 00:02:23;;;;;;;3.60;2.63;;;;;;;;;;5032955;28;20500;-55
2021/07/31 00:04:51;;;;;;;3.27;1.90;;;;;;;;;;5033065;28;20449;-55
2021/07/31 00:07:18;;;;;;;2.03;1.80;;;;;;;;;;5033441;28;20532;-55
2021/07/31 00:09:46;;;;;;;2.23;1.80;;;;;;;;;;5033008;28;20933;-55
2021/07/31 00:12:14;;;;;;;2.20;1.97;;;;;;;;;;5033197;28;20452;-55
2021/07/31 00:14:41;;;;;;;3.80;2.37;;;;;;;;;;5033223;28;20440;-55
2021/07/31 00:17:08;;;;;;;3.00;1.83;;;;;;;;;;5033284;28;20491;-55
2021/07/31 00:19:36;;;;;;;5.07;1.90;;;;;;;;;;5032930;28;20548;-55
2021/07/31 00:22:03;;;;;;;2.70;2.10;;;;;;;;;;5033076;28;20461;-56
2021/07/31 00:24:31;;;;;;;5.00;2.20;;;;;;;;;;5035687;28;20503;-54
2021/07/31 00:26:59;;;;;;;2.40;1.73;;;;;;;;;;5037474;28;20437;-54
2021/07/31 00:29:26;;;;;;;4.97;1.90;;;;;;;;;;5037490;28;20445;-55
2021/07/31 00:31:54;;;;;;;2.03;1.83;;;;;;;;;;5037247;28;20465;-54
2021/07/31 00:34:21;;;;;;;2.63;2.43;;;;;;;;;;5037024;28;20891;-55
2021/07/31 00:36:48;;;;;;;2.93;1.90;;;;;;;;;;5036846;28;20449;-54
2021/07/31 00:39:15;;;;;;;2.13;1.93;;;;;;;;;;5037030;28;20444;-54
2021/07/31 00:41:43;;;;;;;5.70;1.73;;;;;;;;;;5036553;28;20973;-55
2021/07/31 00:44:11;;;;;;;1.60;1.40;;;;;;;;;;5036553;28;20444;-55
2021/07/31 00:46:38;;;;;;;9.83;1.77;;;;;;;;;;5036599;28;20563;-54
2021/07/31 00:49:06;;;;;;;4.60;1.80;;;;;;;;;;5036790;28;20797;-54
2021/07/31 00:51:33;;;;;;;3.57;2.20;;;;;;;;;;5036391;28;20666;-54
2021/07/31 00:54:00;;;;;;;1.77;1.47;;;;;;;;;;5036392;28;20542;-55
2021/07/31 00:56:27;;;;;;;3.67;2.00;;;;;;;;;;5036363;28;20441;-54
2021/07/31 00:58:55;;;;;;;6.07;2.20;;;;;;;;;;5036270;28;20449;-55
2021/07/31 01:01:24;;;;;;;1.90;1.80;;;;;;;;;;5036408;28;20523;-55
2021/07/31 01:03:51;;;;;;;3.23;1.73;;;;;;;;;;5036415;28;20445;-55
2021/07/31 01:06:19;;;;;;;3.63;1.87;;;;;;;;;;5036454;28;20478;-55
2021/07/31 01:08:47;;;;;;;2.30;2.10;;;;;;;;;;5036090;28;20456;-55
2021/07/31 01:11:14;;;;;;;2.17;1.90;;;;;;;;;;5036365;28;20519;-55
2021/07/31 01:13:42;;;;;;;2.97;2.30;;;;;;;;;;5035907;28;20984;-55
2021/07/31 01:16:09;;;;;;;4.27;1.90;;;;;;;;;;5036339;28;20445;-55
2021/07/31 01:18:38;;;;;;;2.70;2.00;;;;;;;;;;5036286;28;20445;-55
2021/07/31 01:21:06;;;;;;;3.07;2.37;;;;;;;;;;5036145;28;20473;-55
2021/07/31 01:23:34;;;;;;;2.20;2.00;;;;;;;;;;5036104;28;20850;-55
2021/07/31 01:26:02;;;;;;;2.63;2.43;;;;;;;;;;5035729;28;20448;-55
2021/07/31 01:28:29;;;;;;;4.20;2.47;;;;;;;;;;5035750;28;20937;-55
2021/07/31 01:30:56;;;;;;;2.93;1.73;;;;;;;;;;5035911;28;20514;-55
2021/07/31 01:33:23;;;;;;;3.40;1.83;;;;;;;;;;5035694;28;21059;-55
2021/07/31 01:35:51;;;;;;;3.20;2.00;;;;;;;;;;5035153;28;20506;-55
2021/07/31 01:38:18;;;;;;;5.63;2.13;;;;;;;;;;5035930;28;20869;-55
2021/07/31 01:40:46;;;;;;;3.90;1.83;;;;;;;;;;5035909;28;20461;-55
2021/07/31 01:43:14;;;;;;;2.60;2.13;;;;;;;;;;5035935;28;20491;-55
2021/07/31 01:45:41;;;;;;;2.70;2.10;;;;;;;;;;5036100;28;20452;-55
2021/07/31 01:48:08;;;;;;;4.33;2.03;;;;;;;;;;5035526;28;20499;-55
2021/07/31 01:50:35;;;;;;;2.90;1.53;;;;;;;;;;5036560;28;20477;-55
2021/07/31 01:53:02;;;;;;;2.87;2.17;;;;;;;;;;5035204;28;20449;-55
2021/07/31 01:55:30;;;;;;;4.67;2.30;;;;;;;;;;5035520;28;20507;-55
2021/07/31 01:57:58;;;;;;;3.33;1.77;;;;;;;;;;5035344;28;20862;-54
2021/07/31 02:00:25;;;;;;;2.83;1.63;;;;;;;;;;5035135;28;20940;-54
2021/07/31 02:02:53;;;;;;;3.20;2.00;;;;;;;;;;5035519;28;20441;-54
2021/07/31 02:05:20;;;;;;;4.00;2.80;;;;;;;;;;5035757;28;20449;-56
2021/07/31 02:07:47;;;;;;;3.53;1.77;;;;;;;;;;5035498;28;20456;-55
2021/07/31 02:10:14;;;;;;;3.00;1.50;;;;;;;;;;5035574;28;20464;-55
2021/07/31 02:12:41;;;;;;;3.37;1.77;;;;;;;;;;5035501;28;20437;-55
2021/07/31 02:15:11;;;;;;;2.93;1.80;;;;;;;;;;5034999;28;20481;-55
2021/07/31 02:17:38;;;;;;;3.80;1.60;;;;;;;;;;5035266;28;20995;-54
2021/07/31 02:20:06;;;;;;;3.50;1.97;;;;;;;;;;5035238;28;20441;-55
2021/07/31 02:22:33;;;;;;;2.90;1.80;;;;;;;;;;5035155;28;20445;-54
2021/07/31 02:25:00;;;;;;;2.90;1.67;;;;;;;;;;5035021;28;20449;-54
2021/07/31 02:27:28;;;;;;;1.63;1.53;;;;;;;;;;5035105;28;20449;-54
2021/07/31 02:29:55;;;;;;;4.27;1.50;;;;;;;;;;5034601;28;20494;-55
2021/07/31 02:32:24;;;;;;;2.90;1.83;;;;;;;;;;5035045;28;20499;-54
2021/07/31 02:34:51;;;;;;;5.17;2.20;;;;;;;;;;5034720;28;20481;-55
2021/07/31 02:37:18;;;;;;;3.60;1.70;;;;;;;;;;5034447;28;20870;-54
2021/07/31 02:39:45;;;;;;;1.60;1.50;;;;;;;;;;5034735;28;20453;-54
2021/07/31 02:42:13;;;;;;;5.17;1.73;;;;;;;;;;5034690;28;20449;-55
2021/07/31 02:44:40;;;;;;;2.87;1.83;;;;;;;;;;5034575;28;20440;-54
2021/07/31 02:47:07;;;;;;;2.47;1.60;;;;;;;;;;5033154;28;20500;-54
2021/07/31 02:49:36;;;;;;;10.60;2.10;;;;;;;;;;5034282;28;20483;-55
2021/07/31 02:52:03;;;;;;;5.73;1.60;;;;;;;;;;5034181;28;20534;-55
2021/07/31 02:54:30;;;;;;;5.63;1.80;;;;;;;;;;5034262;28;20507;-54
2021/07/31 02:56:58;;;;;;;3.70;1.80;;;;;;;;;;5034002;28;20947;-54
2021/07/31 02:59:25;;;;;;;3.40;1.90;;;;;;;;;;5034334;28;20453;-54
2021/07/31 03:01:52;;;;;;;3.47;2.20;;;;;;;;;;5034159;28;20469;-54
2021/07/31 03:04:19;;;;;;;1.77;1.50;;;;;;;;;;5034740;28;20437;-54
2021/07/31 03:06:48;;;;;;;2.63;1.50;;;;;;;;;;5034267;28;20449;-54
2021/07/31 03:09:15;;;;;;;3.90;1.77;;;;;;;;;;5034066;28;20445;-54
2021/07/31 03:11:42;;;;;;;2.90;1.60;;;;;;;;;;5033704;28;20817;-54
2021/07/31 03:14:09;;;;;;;3.33;1.47;;;;;;;;;;5033935;28;20527;-54
2021/07/31 03:16:37;;;;;;;2.80;1.40;;;;;;;;;;5033682;28;20522;-54
2021/07/31 03:19:04;;;;;;;3.73;1.40;;;;;;;;;;5033597;28;20437;-54
2021/07/31 03:21:31;;;;;;;3.00;1.57;;;;;;;;;;5033880;28;20469;-54
2021/07/31 03:24:00;;;;;;;3.50;1.50;;;;;;;;;;5033534;28;20503;-54
2021/07/31 03:26:27;;;;;;;4.17;1.53;;;;;;;;;;5033425;28;20522;-54
2021/07/31 03:28:54;;;;;;;3.97;1.73;;;;;;;;;;5033694;28;20498;-54
2021/07/31 03:31:22;;;;;;;4.27;1.47;;;;;;;;;;5033584;28;20539;-54
2021/07/31 03:33:49;;;;;;;4.90;1.70;;;;;;;;;;5033288;28;20523;-54
2021/07/31 03:36:16;;;;;;;5.80;1.77;;;;;;;;;;5034104;28;20510;-56
2021/07/31 03:38:43;;;;;;;3.80;1.60;;;;;;;;;;5033564;28;20502;-55
2021/07/31 03:41:12;;;;;;;2.23;1.37;;;;;;;;;;5033374;28;20526;-54
2021/07/31 03:43:39;;;;;;;4.70;1.30;;;;;;;;;;5033200;28;20516;-53
2021/07/31 03:46:07;;;;;;;5.00;1.80;;;;;;;;;;5033210;28;20820;-54
2021/07/31 03:48:34;;;;;;;2.63;1.70;;;;;;;;;;5033475;28;20527;-54
2021/07/31 03:51:01;;;;;;;2.00;1.57;;;;;;;;;;5032946;28;20485;-55
2021/07/31 03:53:28;;;;;;;3.30;1.40;;;;;;;;;;5033173;28;20522;-54
2021/07/31 03:55:56;;;;;;;3.07;1.40;;;;;;;;;;5032886;28;20449;-55
2021/07/31 03:58:24;;;;;;;5.20;2.10;;;;;;;;;;5032576;28;20445;-55
2021/07/31 04:00:52;;;;;;;3.40;2.20;;;;;;;;;;5032788;28;20499;-54
2021/07/31 04:03:19;;;;;;;4.63;1.40;;;;;;;;;;5033110;28;20449;-54
2021/07/31 04:08:25;;;;;;;2.30;1.50;;;;;;;;;;5111405;27;20552;-54
2021/07/31 04:10:53;;;;;;;2.47;1.63;;;;;;;;;;5110562;28;20465;-54
2021/07/31 04:13:20;;;;;;;3.20;1.70;;;;;;;;;;5110965;28;20498;-53
2021/07/31 04:15:47;;;;;;;3.20;1.90;;;;;;;;;;5110441;28;20442;-54
2021/07/31 04:18:14;;;;;;;3.70;1.70;;;;;;;;;;5110927;28;20494;-54
2021/07/31 04:20:41;;;;;;;3.50;1.60;;;;;;;;;;5110510;28;21038;-55
2021/07/31 04:23:09;;;;;;;2.50;2.10;;;;;;;;;;5110847;28;20495;-55
2021/07/31 04:25:38;;;;;;;2.53;1.93;;;;;;;;;;5110787;28;20495;-55
2021/07/31 04:28:06;;;;;;;3.27;1.70;;;;;;;;;;5110571;28;20473;-55
2021/07/31 04:30:34;;;;;;;2.10;1.60;;;;;;;;;;5110285;28;21059;-55
2021/07/31 04:33:01;;;;;;;7.90;1.60;;;;;;;;;;5110361;28;20524;-54
2021/07/31 04:35:28;;;;;;;3.43;1.60;;;;;;;;;;5110635;28;20437;-54
2021/07/31 04:37:55;;;;;;;3.10;1.70;;;;;;;;;;5110209;28;20445;-54
2021/07/31 04:40:23;;;;;;;1.90;1.70;;;;;;;;;;5110472;28;20506;-55
2021/07/31 04:42:51;;;;;;;1.93;1.57;;;;;;;;;;5110176;28;20442;-55
2021/07/31 04:45:18;;;;;;;1.90;1.40;;;;;;;;;;5110127;28;20449;-55
2021/07/31 04:47:46;;;;;;;2.00;1.47;;;;;;;;;;5110348;28;20473;-55
2021/07/31 04:50:15;;;;;;;4.80;1.50;;;;;;;;;;5110006;28;20466;-55
2021/07/31 04:52:42;;;;;;;2.77;1.40;;;;;;;;;;5110338;28;20502;-55
2021/07/31 04:55:09;;;;;;;2.70;1.30;;;;;;;;;;5110339;28;20518;-55
2021/07/31 04:57:37;;;;;;;4.90;1.47;;;;;;;;;;5110290;28;20438;-55
2021/07/31 05:00:06;;;;;;;1.93;1.40;;;;;;;;;;5110280;28;20862;-56
2021/07/31 05:02:33;;;;;;;3.47;1.90;;;;;;;;;;5110202;28;20445;-55
2021/07/31 05:05:01;;;;;;;4.50;1.50;;;;;;;;;;5109864;28;20960;-55
2021/07/31 05:07:28;;;;;;;2.60;1.70;;;;;;;;;;5110324;28;20517;-56
2021/07/31 05:09:55;;;;;;;3.00;1.50;;;;;;;;;;5109771;28;20938;-56
2021/07/31 05:12:23;;;;;;;3.40;1.70;;;;;;;;;;5110060;28;20442;-55
2021/07/31 05:14:52;;;;;;;2.33;1.23;;;;;;;;;;5109959;28;20445;-56
2021/07/31 05:17:20;;;;;;;1.53;1.37;;;;;;;;;;5109938;28;20521;-55
2021/07/31 05:19:48;;;;;;;2.83;1.50;;;;;;;;;;5095623;28;20942;-56
2021/07/31 05:22:15;;;;;;;3.80;1.37;;;;;;;;;;5096292;28;20463;-55
2021/07/31 05:24:43;;;;;;;2.00;1.70;;;;;;;;;;5096288;28;20533;-55
2021/07/31 05:27:10;;;;;;;2.00;1.50;;;;;;;;;;5095839;28;20466;-55
2021/07/31 05:29:37;;;;;;;2.20;1.70;;;;;;;;;;5096092;28;20487;-55
2021/07/31 05:32:05;;;;;;;4.00;1.50;;;;;;;;;;5096023;28;20519;-55
2021/07/31 05:34:33;;;;;;;1.97;1.50;;;;;;;;;;5096013;28;20498;-54
2021/07/31 05:37:01;;;;;;;3.00;1.80;;;;;;;;;;5096021;28;20517;-55
2021/07/31 05:39:33;;;;;;;2.70;1.40;;;;;;;;;;5095969;28;20450;-56
2021/07/31 05:42:02;;;;;;;5.07;1.53;;;;;;;;;;5096528;28;20501;-55
2021/07/31 05:44:29;;;;;;;5.40;1.70;;;;;;;;;;5096199;28;20504;-56
2021/07/31 05:46:56;;;;;;;3.43;1.80;;;;;;;;;;5096884;28;20483;-55
2021/07/31 05:49:24;;;;;;;1.60;1.30;;;;;;;;;;5096125;28;20442;-57
2021/07/31 05:51:52;;;;;;;6.20;2.10;;;;;;;;;;5096033;28;20947;-55
2021/07/31 05:54:19;;;;;;;2.70;1.60;;;;;;;;;;5095898;28;20863;-55
2021/07/31 05:56:49;;;;;;;3.13;1.37;;;;;;;;;;5095296;28;20445;-56
2021/07/31 05:59:16;;;;;;;5.17;1.73;;;;;;;;;;5095515;28;20453;-56
2021/07/31 06:01:44;;;;;;;4.60;1.57;;;;;;;;;;5095396;28;20466;-56
2021/07/31 06:04:11;;;;;;;3.23;1.27;;;;;;;;;;5095523;28;20446;-55
2021/07/31 06:06:38;;;;;;;3.97;1.50;;;;;;;;;;5094879;28;20454;-56
2021/07/31 06:09:07;;;;;;;2.70;1.40;;;;;;;;;;5095387;28;20495;-56
2021/07/31 06:11:34;;;;;;;3.03;1.87;;;;;;;;;;5095237;28;20466;-55
2021/07/31 06:14:01;;;;;;;2.37;1.23;;;;;;;;;;5094961;28;20469;-55
2021/07/31 06:16:28;;;;;;;2.93;1.63;;;;;;;;;;5095347;28;20446;-56
2021/07/31 06:18:55;;;;;;;2.10;1.40;;;;;;;;;;5095339;28;20483;-54
2021/07/31 06:21:23;;;;;;;4.23;1.50;;;;;;;;;;5095007;28;20973;-56
2021/07/31 06:23:50;;;;;;;2.53;1.90;;;;;;;;;;5095255;28;20501;-58
2021/07/31 06:26:19;;;;;;;2.37;1.67;;;;;;;;;;5095147;28;20503;-55
2021/07/31 06:28:46;;;;;;;4.13;2.37;;;;;;;;;;5094637;28;21005;-56
2021/07/31 06:31:13;;;;;;;3.97;1.70;;;;;;;;;;5093606;28;20457;-55
2021/07/31 06:33:40;;;;;;;3.33;1.67;;;;;;;;;;5094927;28;20453;-55
2021/07/31 06:36:08;;;;;;;3.70;1.50;;;;;;;;;;5095830;28;20840;-55
2021/07/31 06:38:35;;;;;;;3.27;2.00;;;;;;;;;;5094410;28;20906;-55
2021/07/31 06:41:02;;;;;;;2.73;2.00;;;;;;;;;;5094208;28;21057;-55
2021/07/31 06:43:31;;;;;;;4.67;1.70;;;;;;;;;;5094498;28;20532;-55
2021/07/31 06:45:58;;;;;;;4.70;1.80;;;;;;;;;;5094177;28;20446;-55
2021/07/31 06:48:25;;;;;;;2.97;1.50;;;;;;;;;;5094409;28;20524;-55
2021/07/31 06:50:52;;;;;;;3.83;1.70;;;;;;;;;;5094129;28;21055;-55
2021/07/31 06:53:20;;;;;;;2.47;1.27;;;;;;;;;;5094065;28;20927;-55
2021/07/31 06:55:47;;;;;;;3.00;1.50;;;;;;;;;;5094480;28;20458;-55
2021/07/31 06:58:14;;;;;;;3.20;1.73;;;;;;;;;;5094191;28;20492;-56
2021/07/31 07:00:43;;;;;;;3.67;1.60;;;;;;;;;;5093925;28;20474;-55
2021/07/31 07:03:10;;;;;;;3.10;1.73;;;;;;;;;;5094268;28;20450;-55
2021/07/31 07:05:37;;;;;;;1.90;1.47;;;;;;;;;;5094049;28;20492;-56
2021/07/31 07:08:05;;;;;;;3.10;1.47;;;;;;;;;;5093864;28;20482;-56
2021/07/31 07:10:32;;;;;;;3.83;1.70;;;;;;;;;;5094223;28;20519;-56
2021/07/31 07:12:59;;;;;;;5.60;1.93;;;;;;;;;;5094320;28;20438;-55
2021/07/31 07:15:28;;;;;;;3.63;2.03;;;;;;;;;;5093981;28;20872;-56
2021/07/31 07:17:57;;;;;;;2.67;1.40;;;;;;;;;;5093984;28;20514;-55
2021/07/31 07:20:24;;;;;;;3.87;1.60;;;;;;;;;;5093967;28;20474;-56
2021/07/31 07:22:52;;;;;;;5.20;1.70;;;;;;;;;;5093576;28;20939;-55
2021/07/31 07:25:19;;;;;;;4.83;1.70;;;;;;;;;;5093597;28;20492;-56
2021/07/31 07:27:46;;;;;;;3.83;1.73;;;;;;;;;;5093788;28;20478;-56
2021/07/31 07:30:14;;;;;;;2.47;1.23;;;;;;;;;;5093755;28;20512;-56
2021/07/31 07:32:41;;;;;;;3.00;2.00;;;;;;;;;;5093719;28;20435;-56
2021/07/31 07:35:10;;;;;;;2.83;1.67;;;;;;;;;;5093651;28;20500;-56
2021/07/31 07:37:37;;;;;;;9.70;2.00;;;;;;;;;;5093650;28;20445;-56
2021/07/31 07:40:05;;;;;;;6.13;1.93;;;;;;;;;;5093542;28;20450;-55
2021/07/31 07:42:32;;;;;;;3.40;1.80;;;;;;;;;;5093873;28;20454;-56
2021/07/31 07:45:00;;;;;;;3.57;1.73;;;;;;;;;;5093770;28;20446;-56
2021/07/31 07:47:27;;;;;;;3.43;1.93;;;;;;;;;;5093497;28;20474;-56
2021/07/31 07:49:54;;;;;;;2.43;1.60;;;;;;;;;;5093064;28;20957;-56
2021/07/31 07:52:23;;;;;;;4.03;1.70;;;;;;;;;;5093097;28;20449;-56
2021/07/31 07:54:50;;;;;;;2.77;1.50;;;;;;;;;;5087328;22;20508;-57
2021/07/31 07:57:18;;;;;;;5.37;1.93;;;;;;;;;;5033544;28;20499;-58
2021/07/31 07:59:45;;;;;;;3.00;2.03;;;;;;;;;;5033566;28;20654;-57
2021/07/31 08:02:12;;;;;;;2.03;1.63;;;;;;;;;;5033471;28;20445;-59
2021/07/31 08:04:40;;;;;;;2.37;1.63;;;;;;;;;;5033020;28;20987;-57
2021/07/31 08:07:09;;;;;;;2.60;1.33;;;;;;;;;;5033135;28;20850;-57
2021/07/31 08:09:37;;;;;;;3.00;1.67;;;;;;;;;;5033158;28;20544;-57
2021/07/31 08:12:05;;;;;;;2.53;1.57;;;;;;;;;;5033044;28;20498;-57
2021/07/31 08:14:32;;;;;;;3.87;1.80;;;;;;;;;;5033687;28;20461;-57
2021/07/31 08:16:59;;;;;;;3.77;1.70;;;;;;;;;;5033254;28;20850;-57
2021/07/31 08:19:27;;;;;;;3.83;1.77;;;;;;;;;;5033540;28;20503;-58
2021/07/31 08:21:54;;;;;;;2.37;1.80;;;;;;;;;;5033121;28;20452;-57
2021/07/31 08:24:22;;;;;;;1.63;1.47;;;;;;;;;;5033345;28;20465;-58
2021/07/31 08:26:51;;;;;;;2.00;1.60;;;;;;;;;;5033310;28;20619;-57
2021/07/31 08:29:18;;;;;;;2.63;2.00;;;;;;;;;;5032674;28;20476;-58
2021/07/31 08:31:45;;;;;;;2.50;1.63;;;;;;;;;;5032539;28;20465;-58
2021/07/31 08:34:13;;;;;;;3.60;1.93;;;;;;;;;;5032970;28;20539;-58
2021/07/31 08:36:40;;;;;;;2.30;1.70;;;;;;;;;;5032756;28;20528;-57
2021/07/31 08:39:08;;;;;;;1.60;1.50;;;;;;;;;;5032340;28;20441;-58
2021/07/31 08:41:35;;;;;;;2.17;1.80;;;;;;;;;;5032570;28;20572;-58
2021/07/31 08:44:04;;;;;;;2.30;1.50;;;;;;;;;;5032605;28;20468;-57
2021/07/31 08:46:32;;;;;;;2.43;1.43;;;;;;;;;;5032658;28;20937;-58
2021/07/31 08:48:59;;;;;;;2.43;1.47;;;;;;;;;;5033409;28;20481;-57
2021/07/31 08:51:27;;;;;;;3.03;1.50;;;;;;;;;;5032831;28;20523;-59
2021/07/31 08:53:55;;;;;;;3.37;1.87;;;;;;;;;;5033703;28;20888;-56
2021/07/31 08:56:22;;;;;;;7.10;1.80;;;;;;;;;;5036194;28;20429;-57
2021/07/31 08:58:50;;;;;;;3.10;1.70;;;;;;;;;;5036617;28;20446;-58
2021/07/31 09:01:18;;;;;;;4.47;1.60;;;;;;;;;;5036389;28;20853;-57
2021/07/31 09:03:46;;;;;;;4.73;1.90;;;;;;;;;;5036548;28;20791;-57
2021/07/31 09:06:26;;;;;;;3.80;1.83;;;;;;;;;;5036152;28;20482;-58
2021/07/31 09:08:53;;;;;;;2.37;1.53;;;;;;;;;;5036318;28;20548;-58
2021/07/31 09:11:20;;;;;;;2.53;1.87;;;;;;;;;;5036463;28;20551;-58
2021/07/31 09:13:48;;;;;;;1.40;1.30;;;;;;;;;;5036393;28;20457;-59
2021/07/31 09:16:15;;;;;;;4.20;2.17;;;;;;;;;;5036347;28;20450;-58
2021/07/31 09:18:44;;;;;;;3.60;1.53;;;;;;;;;;5036117;28;20439;-57
2021/07/31 09:21:12;;;;;;;2.70;1.77;;;;;;;;;;5035557;28;20533;-57
2021/07/31 09:23:46;;;;;;;5.70;2.20;;;;;;;;;;5035690;28;20450;-58
2021/07/31 09:26:18;;;;;;;2.87;1.90;;;;;;;;;;5036194;28;20465;-56
2021/07/31 09:28:46;;;;;;;2.33;1.70;;;;;;;;;;5035602;28;21063;-57
2021/07/31 09:31:15;;;;;;;2.33;2.10;;;;;;;;;;5036108;28;20456;-57
2021/07/31 09:33:45;;;;;;;4.00;1.90;;;;;;;;;;5035592;28;21006;-58
2021/07/31 09:36:12;;;;;;;4.20;2.30;;;;;;;;;;5035625;28;20450;-57
2021/07/31 09:38:40;;;;;;;6.10;1.60;;;;;;;;;;5035347;28;21009;-58
2021/07/31 09:41:28;;;;;;;4.13;2.00;;;;;;;;;;5035519;28;20448;-57
2021/07/31 09:44:02;;;;;;;3.70;1.57;;;;;;;;;;5035320;28;20475;-58
2021/07/31 09:46:34;;;;;;;2.73;1.97;;;;;;;;;;5035377;28;20815;-57
2021/07/31 09:49:03;;;;;;;3.03;1.80;;;;;;;;;;5035424;28;20609;-58
2021/07/31 09:51:34;;;;;;;7.40;1.93;;;;;;;;;;5034915;28;21001;-58
2021/07/31 09:54:02;;;;;;;7.33;1.87;;;;;;;;;;5034832;28;21095;-59
2021/07/31 09:56:31;;;;;;;4.70;2.10;;;;;;;;;;5035075;28;20991;-58
2021/07/31 09:59:00;;;;;;;2.73;1.60;;;;;;;;;;5035623;28;20451;-58
2021/07/31 10:01:28;;;;;;;2.27;1.73;;;;;;;;;;5035256;28;20535;-58
2021/07/31 10:03:56;;;;;;;2.73;2.10;;;;;;;;;;5035259;28;20518;-57
2021/07/31 10:06:26;;;;;;;2.37;2.17;;;;;;;;;;5035097;28;20516;-57
2021/07/31 10:08:54;;;;;;;3.00;1.73;;;;;;;;;;5034627;28;20485;-57
2021/07/31 10:11:21;;;;;;;3.87;2.10;;;;;;;;;;5034871;28;20453;-58
2021/07/31 10:13:49;;;;;;;2.63;1.90;;;;;;;;;;5035031;28;20886;-58
2021/07/31 10:16:16;;;;;;;2.20;1.90;;;;;;;;;;5041133;28;20444;-58
2021/07/31 10:18:56;;;;;;;3.30;1.90;;;;;;;;;;5039210;28;20527;-58
2021/07/31 10:21:25;;;;;;;5.67;2.20;;;;;;;;;;5035399;28;20818;-57
2021/07/31 10:23:59;;;;;;;4.07;2.57;;;;;;;;;;5034548;28;20444;-58
2021/07/31 10:26:27;;;;;;;2.70;1.77;;;;;;;;;;5035255;28;20444;-57
2021/07/31 10:28:54;;;;;;;2.83;2.30;;;;;;;;;;5034555;28;20971;-59
2021/07/31 10:31:28;;;;;;;4.60;2.10;;;;;;;;;;5034466;28;20450;-58
2021/07/31 10:33:55;;;;;;;3.87;1.83;;;;;;;;;;5034370;28;20553;-59
2021/07/31 10:36:31;;;;;;;2.13;1.93;;;;;;;;;;5034871;28;20451;-59
2021/07/31 10:38:58;;;;;;;3.20;1.50;;;;;;;;;;5034499;28;20446;-57
2021/07/31 10:41:40;;;;;;;2.70;1.90;;;;;;;;;;5034132;28;20453;-57
2021/07/31 10:44:09;;;;;;;3.80;2.20;;;;;;;;;;5017807;28;20531;-57
2021/07/31 10:46:39;;;;;;;4.13;2.23;;;;;;;;;;5034381;28;20548;-57
2021/07/31 10:49:21;;;;;;;5.77;2.43;;;;;;;;;;5033960;28;20476;-57
2021/07/31 10:51:49;;;;;;;2.90;2.10;;;;;;;;;;5033924;28;20441;-58
2021/07/31 10:54:16;;;;;;;3.40;1.80;;;;;;;;;;5033649;28;20477;-58
2021/07/31 10:56:53;;;;;;;4.07;2.17;;;;;;;;;;5034092;28;20859;-57
2021/07/31 10:59:21;;;;;;;2.73;1.90;;;;;;;;;;5034426;28;20440;-58
2021/07/31 11:01:49;;;;;;;3.13;1.53;;;;;;;;;;5034437;28;20449;-57
2021/07/31 11:04:34;;;;;;;1.90;1.70;;;;;;;;;;5034477;28;20468;-58
2021/07/31 11:07:12;;;;;;;4.00;1.93;;;;;;;;;;5034213;28;20487;-58
2021/07/31 11:09:39;;;;;;;2.53;1.73;;;;;;;;;;5033808;28;20534;-57
2021/07/31 11:12:25;;;;;;;3.20;2.03;;;;;;;;;;5033631;28;20929;-56
2021/07/31 11:15:05;;;;;;;2.33;2.10;;;;;;;;;;5034067;28;20527;-57
2021/07/31 11:17:32;;;;;;;3.03;2.10;;;;;;;;;;5033081;28;20472;-56
2021/07/31 11:20:00;;;;;;;2.23;1.60;;;;;;;;;;5033421;28;20444;-56
2021/07/31 11:22:29;;;;;;;2.60;1.43;;;;;;;;;;5033737;28;20514;-58
2021/07/31 11:24:57;;;;;;;3.43;2.20;;;;;;;;;;5033636;28;21034;-57
2021/07/31 11:27:24;;;;;;;2.27;1.60;;;;;;;;;;5033880;28;20528;-56
2021/07/31 11:29:55;;;;;;;3.77;1.60;;;;;;;;;;5033515;28;20473;-57
2021/07/31 11:32:28;;;;;;;6.50;1.70;;;;;;;;;;5033729;28;20456;-58
2021/07/31 11:34:56;;;;;;;2.53;1.70;;;;;;;;;;5033800;28;21082;-58
2021/07/31 11:37:24;;;;;;;2.53;1.60;;;;;;;;;;5033500;28;20504;-58
2021/07/31 11:40:04;;;;;;;2.47;1.63;;;;;;;;;;5033685;28;21025;-57
2021/07/31 11:42:31;;;;;;;2.77;1.57;;;;;;;;;;5034492;28;20426;-58
2021/07/31 11:45:03;;;;;;;3.03;1.83;;;;;;;;;;5034191;28;20559;-58
2021/07/31 11:47:30;;;;;;;3.17;1.97;;;;;;;;;;5034834;28;20429;-58
2021/07/31 11:50:06;;;;;;;3.90;1.87;;;;;;;;;;5035535;28;20488;-58
2021/07/31 11:52:33;;;;;;;2.20;1.63;;;;;;;;;;5033865;28;20433;-58
2021/07/31 11:55:02;;;;;;;3.67;1.60;;;;;;;;;;5033751;28;20511;-58
2021/07/31 11:57:29;;;;;;;2.63;1.70;;;;;;;;;;5033425;28;20810;-58
2021/07/31 12:00:00;;;;;;;3.20;1.67;;;;;;;;;;5034127;28;20493;-58
2021/07/31 12:02:34;;;;;;;3.03;1.93;;;;;;;;;;5033401;28;20540;-57
2021/07/31 12:05:02;;;;;;;2.20;1.70;;;;;;;;;;5033224;28;20575;-57
2021/07/31 12:07:29;;;;;;;2.83;2.10;;;;;;;;;;5033169;28;20941;-58
2021/07/31 12:10:01;;;;;;;3.03;2.20;;;;;;;;;;5033240;28;20534;-58
2021/07/31 12:12:29;;;;;;;2.77;2.07;;;;;;;;;;5033218;28;20509;-56
2021/07/31 12:15:13;;;;;;;2.67;1.67;;;;;;;;;;5032987;28;20527;-58
2021/07/31 12:17:45;;;;;;;2.43;1.83;;;;;;;;;;5032957;28;20456;-58
2021/07/31 12:20:12;;;;;;;2.67;1.60;;;;;;;;;;5032508;28;20935;-57
2021/07/31 12:22:52;;;;;;;2.23;2.03;;;;;;;;;;5032529;28;20452;-58
2021/07/31 12:25:22;;;;;;;2.47;1.90;;;;;;;;;;5033010;28;20908;-58
2021/07/31 12:27:49;;;;;;;1.77;1.43;;;;;;;;;;5033070;28;20453;-57
2021/07/31 12:30:21;;;;;;;2.80;1.77;;;;;;;;;;5037335;28;20475;-57
2021/07/31 12:32:49;;;;;;;1.97;1.53;;;;;;;;;;5037037;28;20457;-58
2021/07/31 12:35:30;;;;;;;1.90;1.60;;;;;;;;;;5036829;28;20463;-58
2021/07/31 12:37:57;;;;;;;4.27;1.67;;;;;;;;;;5037289;28;20553;-58
2021/07/31 12:40:26;;;;;;;2.23;1.83;;;;;;;;;;5036385;28;20498;-58
2021/07/31 12:42:53;;;;;;;3.80;1.60;;;;;;;;;;5036888;28;20514;-58
2021/07/31 12:45:20;;;;;;;2.40;1.70;;;;;;;;;;5036604;28;20881;-57
2021/07/31 12:47:48;;;;;;;6.40;2.10;;;;;;;;;;5042774;28;20957;-58
2021/07/31 12:50:15;;;;;;;3.70;2.10;;;;;;;;;;5051236;28;20491;-57
2021/07/31 12:52:42;;;;;;;5.30;2.37;;;;;;;;;;5047715;28;20448;-58
2021/07/31 12:55:10;;;;;;;7.13;2.30;;;;;;;;;;5038825;28;20993;-57
2021/07/31 12:57:38;;;;;;;4.07;2.30;;;;;;;;;;5039438;28;20497;-58
2021/07/31 13:00:06;;;;;;;3.70;1.80;;;;;;;;;;5037702;28;20495;-59
2021/07/31 13:02:34;;;;;;;2.90;2.30;;;;;;;;;;5036415;28;20454;-59
2021/07/31 13:05:01;;;;;;;4.33;2.30;;;;;;;;;;5036810;28;20976;-59
2021/07/31 13:07:28;;;;;;;2.13;1.87;;;;;;;;;;5036583;28;20502;-57
2021/07/31 13:09:55;;;;;;;4.53;2.30;;;;;;;;;;5037462;28;20475;-58
2021/07/31 13:12:23;;;;;;;2.13;1.97;;;;;;;;;;5036738;28;20818;-58
2021/07/31 13:14:52;;;;;;;3.13;2.00;;;;;;;;;;5036644;28;20515;-58
2021/07/31 13:17:20;;;;;;;4.50;1.93;;;;;;;;;;5036200;28;20939;-58
2021/07/31 13:19:47;;;;;;;5.10;2.10;;;;;;;;;;5036405;28;20483;-57
2021/07/31 13:22:14;;;;;;;3.50;2.43;;;;;;;;;;5036460;28;20509;-58
2021/07/31 13:24:42;;;;;;;2.97;2.10;;;;;;;;;;5035987;28;20469;-57
2021/07/31 13:27:10;;;;;;;3.57;1.97;;;;;;;;;;5035748;28;20555;-58
2021/07/31 13:29:37;;;;;;;3.30;2.20;;;;;;;;;;5036446;28;20506;-57
2021/07/31 13:32:06;;;;;;;3.33;2.43;;;;;;;;;;5035691;28;20501;-57
2021/07/31 13:34:33;;;;;;;1.93;1.73;;;;;;;;;;5035755;28;20887;-58
2021/07/31 13:37:01;;;;;;;2.63;2.43;;;;;;;;;;5035842;28;20498;-59
2021/07/31 13:39:32;;;;;;;2.33;2.10;;;;;;;;;;5034960;28;21001;-57
2021/07/31 13:41:59;;;;;;;2.67;2.23;;;;;;;;;;5035705;28;20487;-57
2021/07/31 13:44:26;;;;;;;3.80;1.80;;;;;;;;;;5035855;28;20522;-58
2021/07/31 13:46:54;;;;;;;3.70;2.03;;;;;;;;;;5035126;28;20796;-58
2021/07/31 13:49:22;;;;;;;2.90;2.20;;;;;;;;;;5035534;28;20484;-58
2021/07/31 13:51:49;;;;;;;3.30;1.70;;;;;;;;;;5035522;28;20516;-58
2021/07/31 13:54:17;;;;;;;3.77;2.30;;;;;;;;;;5059743;22;20491;-53
2021/07/31 13:56:44;;;;;;;4.97;2.63;;;;;;;;;;5035697;28;20947;-55
2021/07/31 13:59:12;;;;;;;4.60;2.50;;;;;;;;;;5035946;28;20880;-55
2021/07/31 14:01:39;;;;;;;2.70;2.50;;;;;;;;;;5035592;28;20450;-55
2021/07/31 14:04:06;;;;;;;4.40;2.60;;;;;;;;;;5035300;28;20450;-55
2021/07/31 14:06:35;;;;;;;8.67;3.07;;;;;;;;;;5015293;28;20458;-55
2021/07/31 14:09:02;;;;;;;3.90;3.07;;;;;;;;;;5015605;28;20437;-55
2021/07/31 14:11:29;;;;;;;3.70;2.97;;;;;;;;;;5014983;28;21059;-55
2021/07/31 14:13:57;;;;;;;3.37;2.50;;;;;;;;;;5015470;28;20497;-56
2021/07/31 14:16:24;;;;;;;4.33;2.90;;;;;;;;;;5015470;28;20528;-56
2021/07/31 14:18:51;;;;;;;3.10;2.40;;;;;;;;;;5015464;28;20521;-56
2021/07/31 14:21:18;;;;;;;2.47;2.27;;;;;;;;;;5015209;28;20441;-56
2021/07/31 14:23:47;;;;;;;5.40;2.70;;;;;;;;;;5015579;28;20452;-56
2021/07/31 14:26:14;;;;;;;3.07;2.30;;;;;;;;;;5015049;28;20486;-56
2021/07/31 14:28:41;;;;;;;4.23;2.23;;;;;;;;;;5015422;28;20444;-56
2021/07/31 14:31:09;;;;;;;2.67;1.80;;;;;;;;;;5015165;28;20477;-56
2021/07/31 14:33:36;;;;;;;3.60;2.40;;;;;;;;;;5014891;28;20457;-56
2021/07/31 14:36:03;;;;;;;3.43;2.67;;;;;;;;;;5014667;28;20470;-56
2021/07/31 14:38:30;;;;;;;2.47;2.20;;;;;;;;;;5014940;28;20448;-56
2021/07/31 14:40:59;;;;;;;7.40;2.30;;;;;;;;;;5015191;28;20443;-55
2021/07/31 14:43:26;;;;;;;2.77;2.10;;;;;;;;;;5015051;28;20497;-56
2021/07/31 14:45:54;;;;;;;2.20;2.00;;;;;;;;;;5015312;28;20610;-56
2021/07/31 14:48:21;;;;;;;4.37;2.80;;;;;;;;;;5014942;28;20479;-56
2021/07/31 14:50:49;;;;;;;2.80;2.40;;;;;;;;;;5014216;28;20567;-54
2021/07/31 14:53:16;;;;;;;3.60;2.33;;;;;;;;;;5014875;28;20873;-56